sensor_id;sensor_type;location;lat;lon;timestamp;P1;durP1;ratioP1;P2;durP2;ratioP2
50161;SDS011;36061;48.116;11.612;2022-12-07T00:01:41;10.47;;;6.17;;
50161;SDS011;36061;48.116;11.612;2022-12-07T00:04:11;12.40;;;7.37;;
50161;SDS011;36061;48.116;11.612;2022-12-07T00:06:39;11.33;;;6.87;;
50161;SDS011;36061;48.116;11.612;2022-12-07T00:09:08;10.80;;;6.10;;
50161;SDS011;36061;48.116;11.612;2022-12-07T00:11:39;9.13;;;6.00;;
50161;SDS011;36061;48.116;11.612;2022-12-07T00:14:06;11.63;;;6.33;;
50161;SDS011;36061;48.116;11.612;2022-12-07T00:16:35;10.03;;;5.73;;
50161;SDS011;36061;48.116;11.612;2022-12-07T00:19:01;11.70;;;6.10;;
50161;SDS011;36061;48.116;11.612;2022-12-07T00:21:29;9.83;;;6.17;;
50161;SDS011;36061;48.116;11.612;2022-12-07T00:23:57;9.80;;;5.97;;
50161;SDS011;36061;48.116;11.612;2022-12-07T00:26:25;9.47;;;5.37;;
50161;SDS011;36061;48.116;11.612;2022-12-07T00:28:53;9.27;;;5.80;;
50161;SDS011;36061;48.116;11.612;2022-12-07T00:31:22;9.33;;;5.87;;
50161;SDS011;36061;48.116;11.612;2022-12-07T00:33:49;8.80;;;5.83;;
50161;SDS011;36061;48.116;11.612;2022-12-07T00:36:16;8.47;;;5.83;;
50161;SDS011;36061;48.116;11.612;2022-12-07T00:38:44;7.90;;;5.37;;
50161;SDS011;36061;48.116;11.612;2022-12-07T00:41:14;9.03;;;5.90;;
50161;SDS011;36061;48.116;11.612;2022-12-07T00:43:45;7.40;;;5.20;;
50161;SDS011;36061;48.116;11.612;2022-12-07T00:46:12;8.90;;;5.23;;
50161;SDS011;36061;48.116;11.612;2022-12-07T00:48:38;8.43;;;5.37;;
50161;SDS011;36061;48.116;11.612;2022-12-07T00:51:05;8.23;;;5.63;;
50161;SDS011;36061;48.116;11.612;2022-12-07T00:53:33;7.73;;;5.10;;
50161;SDS011;36061;48.116;11.612;2022-12-07T00:56:04;8.93;;;5.93;;
50161;SDS011;36061;48.116;11.612;2022-12-07T00:58:34;7.70;;;5.43;;
50161;SDS011;36061;48.116;11.612;2022-12-07T01:01:00;6.83;;;4.87;;
50161;SDS011;36061;48.116;11.612;2022-12-07T01:03:27;7.23;;;5.00;;
50161;SDS011;36061;48.116;11.612;2022-12-07T01:05:54;8.67;;;5.43;;
50161;SDS011;36061;48.116;11.612;2022-12-07T01:08:20;8.47;;;4.83;;
50161;SDS011;36061;48.116;11.612;2022-12-07T01:10:46;8.23;;;4.93;;
50161;SDS011;36061;48.116;11.612;2022-12-07T01:13:12;7.07;;;5.03;;
50161;SDS011;36061;48.116;11.612;2022-12-07T01:15:39;8.60;;;5.13;;
50161;SDS011;36061;48.116;11.612;2022-12-07T01:18:06;7.93;;;5.50;;
50161;SDS011;36061;48.116;11.612;2022-12-07T01:20:31;7.80;;;4.87;;
50161;SDS011;36061;48.116;11.612;2022-12-07T01:22:57;9.23;;;5.17;;
50161;SDS011;36061;48.116;11.612;2022-12-07T01:25:23;8.57;;;4.70;;
50161;SDS011;36061;48.116;11.612;2022-12-07T01:27:48;6.70;;;4.97;;
50161;SDS011;36061;48.116;11.612;2022-12-07T01:30:14;7.90;;;5.07;;
50161;SDS011;36061;48.116;11.612;2022-12-07T01:32:40;6.63;;;5.00;;
50161;SDS011;36061;48.116;11.612;2022-12-07T01:35:06;6.70;;;4.57;;
50161;SDS011;36061;48.116;11.612;2022-12-07T01:37:36;7.13;;;4.63;;
50161;SDS011;36061;48.116;11.612;2022-12-07T01:40:03;6.37;;;4.63;;
50161;SDS011;36061;48.116;11.612;2022-12-07T01:42:31;9.47;;;4.87;;
50161;SDS011;36061;48.116;11.612;2022-12-07T01:48:00;6.43;;;4.27;;
50161;SDS011;36061;48.116;11.612;2022-12-07T01:50:26;6.87;;;4.53;;
50161;SDS011;36061;48.116;11.612;2022-12-07T01:52:56;6.57;;;4.60;;
50161;SDS011;36061;48.116;11.612;2022-12-07T01:55:24;7.67;;;4.97;;
50161;SDS011;36061;48.116;11.612;2022-12-07T01:57:52;6.87;;;4.33;;
50161;SDS011;36061;48.116;11.612;2022-12-07T02:00:19;7.97;;;4.77;;
50161;SDS011;36061;48.116;11.612;2022-12-07T02:02:55;6.83;;;4.60;;
50161;SDS011;36061;48.116;11.612;2022-12-07T02:05:27;6.83;;;4.30;;
50161;SDS011;36061;48.116;11.612;2022-12-07T02:07:54;9.57;;;5.43;;
50161;SDS011;36061;48.116;11.612;2022-12-07T02:10:23;7.33;;;5.00;;
50161;SDS011;36061;48.116;11.612;2022-12-07T02:12:58;7.80;;;4.87;;
50161;SDS011;36061;48.116;11.612;2022-12-07T02:15:38;7.87;;;4.77;;
50161;SDS011;36061;48.116;11.612;2022-12-07T02:34:49;8.53;;;4.93;;
50161;SDS011;36061;48.116;11.612;2022-12-07T02:40:33;7.87;;;5.03;;
50161;SDS011;36061;48.116;11.612;2022-12-07T02:43:04;6.77;;;5.17;;
50161;SDS011;36061;48.116;11.612;2022-12-07T02:45:39;6.50;;;4.50;;
50161;SDS011;36061;48.116;11.612;2022-12-07T02:48:07;7.37;;;5.07;;
50161;SDS011;36061;48.116;11.612;2022-12-07T02:50:37;8.03;;;5.17;;
50161;SDS011;36061;48.116;11.612;2022-12-07T02:53:02;6.50;;;4.50;;
50161;SDS011;36061;48.116;11.612;2022-12-07T02:55:29;5.60;;;4.13;;
50161;SDS011;36061;48.116;11.612;2022-12-07T03:01:27;7.60;;;4.67;;
50161;SDS011;36061;48.116;11.612;2022-12-07T03:03:34;7.40;;;4.90;;
50161;SDS011;36061;48.116;11.612;2022-12-07T03:06:05;8.03;;;4.63;;
50161;SDS011;36061;48.116;11.612;2022-12-07T03:11:41;8.40;;;5.17;;
50161;SDS011;36061;48.116;11.612;2022-12-07T03:14:22;6.70;;;4.83;;
50161;SDS011;36061;48.116;11.612;2022-12-07T03:17:00;10.47;;;5.37;;
50161;SDS011;36061;48.116;11.612;2022-12-07T03:19:47;6.63;;;4.50;;
50161;SDS011;36061;48.116;11.612;2022-12-07T03:22:16;7.47;;;4.53;;
50161;SDS011;36061;48.116;11.612;2022-12-07T03:24:51;7.50;;;5.07;;
50161;SDS011;36061;48.116;11.612;2022-12-07T03:32:23;7.27;;;5.30;;
50161;SDS011;36061;48.116;11.612;2022-12-07T03:37:33;9.13;;;5.43;;
50161;SDS011;36061;48.116;11.612;2022-12-07T03:40:04;7.53;;;4.57;;
50161;SDS011;36061;48.116;11.612;2022-12-07T03:42:38;7.10;;;4.97;;
50161;SDS011;36061;48.116;11.612;2022-12-07T03:45:04;8.17;;;4.73;;
50161;SDS011;36061;48.116;11.612;2022-12-07T03:47:37;8.63;;;5.03;;
50161;SDS011;36061;48.116;11.612;2022-12-07T03:52:53;6.50;;;4.60;;
50161;SDS011;36061;48.116;11.612;2022-12-07T03:57:50;7.90;;;5.27;;
50161;SDS011;36061;48.116;11.612;2022-12-07T04:00:20;9.63;;;5.83;;
50161;SDS011;36061;48.116;11.612;2022-12-07T04:02:48;7.77;;;5.10;;
50161;SDS011;36061;48.116;11.612;2022-12-07T04:05:17;7.83;;;5.37;;
50161;SDS011;36061;48.116;11.612;2022-12-07T04:07:43;8.03;;;6.00;;
50161;SDS011;36061;48.116;11.612;2022-12-07T04:10:09;8.60;;;5.17;;
50161;SDS011;36061;48.116;11.612;2022-12-07T04:12:35;9.27;;;5.03;;
50161;SDS011;36061;48.116;11.612;2022-12-07T04:15:02;7.30;;;5.80;;
50161;SDS011;36061;48.116;11.612;2022-12-07T04:17:28;6.87;;;4.60;;
50161;SDS011;36061;48.116;11.612;2022-12-07T04:19:54;9.67;;;6.03;;
50161;SDS011;36061;48.116;11.612;2022-12-07T04:22:20;10.00;;;6.23;;
50161;SDS011;36061;48.116;11.612;2022-12-07T04:24:46;7.40;;;5.73;;
50161;SDS011;36061;48.116;11.612;2022-12-07T04:27:12;8.27;;;5.60;;
50161;SDS011;36061;48.116;11.612;2022-12-07T04:29:37;9.20;;;6.00;;
50161;SDS011;36061;48.116;11.612;2022-12-07T04:32:03;9.03;;;6.47;;
50161;SDS011;36061;48.116;11.612;2022-12-07T04:34:29;8.13;;;5.83;;
50161;SDS011;36061;48.116;11.612;2022-12-07T04:36:55;10.30;;;6.20;;
50161;SDS011;36061;48.116;11.612;2022-12-07T04:39:22;7.50;;;5.23;;
50161;SDS011;36061;48.116;11.612;2022-12-07T04:41:48;7.83;;;5.70;;
50161;SDS011;36061;48.116;11.612;2022-12-07T04:44:15;13.10;;;6.77;;
50161;SDS011;36061;48.116;11.612;2022-12-07T04:46:41;8.93;;;5.83;;
50161;SDS011;36061;48.116;11.612;2022-12-07T04:49:08;9.13;;;6.23;;
50161;SDS011;36061;48.116;11.612;2022-12-07T04:51:34;10.40;;;6.20;;
50161;SDS011;36061;48.116;11.612;2022-12-07T04:54:00;9.53;;;5.87;;
50161;SDS011;36061;48.116;11.612;2022-12-07T04:56:26;9.03;;;5.90;;
50161;SDS011;36061;48.116;11.612;2022-12-07T04:58:52;9.80;;;6.20;;
50161;SDS011;36061;48.116;11.612;2022-12-07T05:01:19;14.00;;;6.10;;
50161;SDS011;36061;48.116;11.612;2022-12-07T05:03:46;9.60;;;6.40;;
50161;SDS011;36061;48.116;11.612;2022-12-07T05:06:12;11.03;;;6.70;;
50161;SDS011;36061;48.116;11.612;2022-12-07T05:08:38;7.87;;;5.40;;
50161;SDS011;36061;48.116;11.612;2022-12-07T05:11:05;12.13;;;6.63;;
50161;SDS011;36061;48.116;11.612;2022-12-07T05:13:32;10.87;;;6.60;;
50161;SDS011;36061;48.116;11.612;2022-12-07T05:15:58;8.37;;;6.43;;
50161;SDS011;36061;48.116;11.612;2022-12-07T05:18:24;9.63;;;6.17;;
50161;SDS011;36061;48.116;11.612;2022-12-07T05:20:50;8.80;;;5.43;;
50161;SDS011;36061;48.116;11.612;2022-12-07T05:23:17;9.13;;;5.73;;
50161;SDS011;36061;48.116;11.612;2022-12-07T05:25:43;7.77;;;5.53;;
50161;SDS011;36061;48.116;11.612;2022-12-07T05:28:09;8.70;;;5.63;;
50161;SDS011;36061;48.116;11.612;2022-12-07T05:30:35;9.43;;;5.93;;
50161;SDS011;36061;48.116;11.612;2022-12-07T05:33:01;9.27;;;6.00;;
50161;SDS011;36061;48.116;11.612;2022-12-07T05:35:28;9.93;;;6.80;;
50161;SDS011;36061;48.116;11.612;2022-12-07T05:37:54;7.67;;;5.07;;
50161;SDS011;36061;48.116;11.612;2022-12-07T05:40:20;10.60;;;5.80;;
50161;SDS011;36061;48.116;11.612;2022-12-07T05:42:46;11.00;;;5.40;;
50161;SDS011;36061;48.116;11.612;2022-12-07T05:45:12;10.87;;;5.80;;
50161;SDS011;36061;48.116;11.612;2022-12-07T05:47:38;10.20;;;5.90;;
50161;SDS011;36061;48.116;11.612;2022-12-07T05:50:04;10.23;;;6.03;;
50161;SDS011;36061;48.116;11.612;2022-12-07T05:52:31;10.03;;;5.40;;
50161;SDS011;36061;48.116;11.612;2022-12-07T05:54:57;8.60;;;5.47;;
50161;SDS011;36061;48.116;11.612;2022-12-07T05:57:22;9.47;;;6.03;;
50161;SDS011;36061;48.116;11.612;2022-12-07T05:59:48;8.40;;;5.50;;
50161;SDS011;36061;48.116;11.612;2022-12-07T06:02:15;11.50;;;5.53;;
50161;SDS011;36061;48.116;11.612;2022-12-07T06:04:43;9.00;;;5.77;;
50161;SDS011;36061;48.116;11.612;2022-12-07T06:07:11;10.27;;;6.67;;
50161;SDS011;36061;48.116;11.612;2022-12-07T06:09:38;9.53;;;5.30;;
50161;SDS011;36061;48.116;11.612;2022-12-07T06:12:05;8.97;;;6.00;;
50161;SDS011;36061;48.116;11.612;2022-12-07T06:14:50;10.80;;;5.83;;
50161;SDS011;36061;48.116;11.612;2022-12-07T06:17:16;9.57;;;6.60;;
50161;SDS011;36061;48.116;11.612;2022-12-07T06:19:42;9.33;;;6.57;;
50161;SDS011;36061;48.116;11.612;2022-12-07T06:22:08;7.90;;;5.53;;
50161;SDS011;36061;48.116;11.612;2022-12-07T06:24:36;11.17;;;6.63;;
50161;SDS011;36061;48.116;11.612;2022-12-07T06:27:03;8.97;;;6.33;;
50161;SDS011;36061;48.116;11.612;2022-12-07T06:29:29;10.87;;;7.17;;
50161;SDS011;36061;48.116;11.612;2022-12-07T06:31:55;10.93;;;6.23;;
50161;SDS011;36061;48.116;11.612;2022-12-07T06:34:21;9.00;;;5.90;;
50161;SDS011;36061;48.116;11.612;2022-12-07T06:36:48;6.10;;;4.37;;
50161;SDS011;36061;48.116;11.612;2022-12-07T06:39:20;9.57;;;5.57;;
50161;SDS011;36061;48.116;11.612;2022-12-07T06:41:47;9.77;;;5.87;;
50161;SDS011;36061;48.116;11.612;2022-12-07T06:44:13;10.07;;;6.37;;
50161;SDS011;36061;48.116;11.612;2022-12-07T06:46:39;10.53;;;6.20;;
50161;SDS011;36061;48.116;11.612;2022-12-07T06:49:05;8.70;;;5.27;;
50161;SDS011;36061;48.116;11.612;2022-12-07T06:51:32;7.17;;;5.33;;
50161;SDS011;36061;48.116;11.612;2022-12-07T06:53:58;6.53;;;4.87;;
50161;SDS011;36061;48.116;11.612;2022-12-07T06:56:24;6.97;;;4.90;;
50161;SDS011;36061;48.116;11.612;2022-12-07T06:58:49;9.23;;;5.60;;
50161;SDS011;36061;48.116;11.612;2022-12-07T07:01:16;9.67;;;6.00;;
50161;SDS011;36061;48.116;11.612;2022-12-07T07:03:43;9.77;;;6.53;;
50161;SDS011;36061;48.116;11.612;2022-12-07T07:06:10;8.40;;;5.03;;
50161;SDS011;36061;48.116;11.612;2022-12-07T07:08:37;6.90;;;5.60;;
50161;SDS011;36061;48.116;11.612;2022-12-07T07:11:04;8.83;;;5.43;;
50161;SDS011;36061;48.116;11.612;2022-12-07T07:13:31;9.87;;;5.93;;
50161;SDS011;36061;48.116;11.612;2022-12-07T07:15:57;8.63;;;5.50;;
50161;SDS011;36061;48.116;11.612;2022-12-07T07:18:23;9.93;;;6.40;;
50161;SDS011;36061;48.116;11.612;2022-12-07T07:20:52;8.47;;;5.77;;
50161;SDS011;36061;48.116;11.612;2022-12-07T07:23:19;8.80;;;5.77;;
50161;SDS011;36061;48.116;11.612;2022-12-07T07:25:45;10.53;;;6.47;;
50161;SDS011;36061;48.116;11.612;2022-12-07T07:28:11;8.23;;;5.43;;
50161;SDS011;36061;48.116;11.612;2022-12-07T07:30:37;8.17;;;5.80;;
50161;SDS011;36061;48.116;11.612;2022-12-07T07:33:04;7.53;;;5.53;;
50161;SDS011;36061;48.116;11.612;2022-12-07T07:35:30;8.03;;;5.87;;
50161;SDS011;36061;48.116;11.612;2022-12-07T07:37:57;9.53;;;5.80;;
50161;SDS011;36061;48.116;11.612;2022-12-07T07:40:24;9.50;;;6.23;;
50161;SDS011;36061;48.116;11.612;2022-12-07T07:42:50;9.37;;;5.47;;
50161;SDS011;36061;48.116;11.612;2022-12-07T07:45:18;10.93;;;5.80;;
50161;SDS011;36061;48.116;11.612;2022-12-07T07:47:45;9.00;;;5.87;;
50161;SDS011;36061;48.116;11.612;2022-12-07T07:50:11;8.43;;;5.93;;
50161;SDS011;36061;48.116;11.612;2022-12-07T07:52:37;12.50;;;6.90;;
50161;SDS011;36061;48.116;11.612;2022-12-07T07:55:05;11.23;;;6.20;;
50161;SDS011;36061;48.116;11.612;2022-12-07T07:57:34;9.83;;;6.37;;
50161;SDS011;36061;48.116;11.612;2022-12-07T08:00:00;13.03;;;6.33;;
50161;SDS011;36061;48.116;11.612;2022-12-07T08:02:37;9.33;;;6.17;;
50161;SDS011;36061;48.116;11.612;2022-12-07T08:05:04;9.67;;;5.83;;
50161;SDS011;36061;48.116;11.612;2022-12-07T08:07:30;9.63;;;5.97;;
50161;SDS011;36061;48.116;11.612;2022-12-07T08:09:56;9.63;;;6.30;;
50161;SDS011;36061;48.116;11.612;2022-12-07T08:12:21;10.07;;;6.03;;
50161;SDS011;36061;48.116;11.612;2022-12-07T08:14:47;10.20;;;6.20;;
50161;SDS011;36061;48.116;11.612;2022-12-07T08:17:13;10.20;;;6.20;;
50161;SDS011;36061;48.116;11.612;2022-12-07T08:19:39;11.10;;;6.43;;
50161;SDS011;36061;48.116;11.612;2022-12-07T08:22:04;10.07;;;6.13;;
50161;SDS011;36061;48.116;11.612;2022-12-07T08:24:32;10.63;;;6.10;;
50161;SDS011;36061;48.116;11.612;2022-12-07T08:26:59;9.13;;;6.20;;
50161;SDS011;36061;48.116;11.612;2022-12-07T08:29:25;8.33;;;5.80;;
50161;SDS011;36061;48.116;11.612;2022-12-07T08:31:50;11.47;;;6.27;;
50161;SDS011;36061;48.116;11.612;2022-12-07T08:34:16;12.80;;;6.23;;
50161;SDS011;36061;48.116;11.612;2022-12-07T08:36:42;10.20;;;6.13;;
50161;SDS011;36061;48.116;11.612;2022-12-07T08:39:08;10.87;;;7.20;;
50161;SDS011;36061;48.116;11.612;2022-12-07T08:41:34;13.17;;;7.27;;
50161;SDS011;36061;48.116;11.612;2022-12-07T08:44:00;11.83;;;6.43;;
50161;SDS011;36061;48.116;11.612;2022-12-07T08:46:36;12.80;;;6.33;;
50161;SDS011;36061;48.116;11.612;2022-12-07T08:49:19;9.93;;;6.37;;
50161;SDS011;36061;48.116;11.612;2022-12-07T08:51:48;10.57;;;6.60;;
50161;SDS011;36061;48.116;11.612;2022-12-07T08:54:15;9.83;;;6.27;;
50161;SDS011;36061;48.116;11.612;2022-12-07T08:56:43;14.90;;;6.83;;
50161;SDS011;36061;48.116;11.612;2022-12-07T08:59:10;10.80;;;6.87;;
50161;SDS011;36061;48.116;11.612;2022-12-07T09:01:39;11.83;;;7.27;;
50161;SDS011;36061;48.116;11.612;2022-12-07T09:04:04;9.60;;;6.07;;
50161;SDS011;36061;48.116;11.612;2022-12-07T09:06:30;11.53;;;6.50;;
50161;SDS011;36061;48.116;11.612;2022-12-07T09:08:57;10.20;;;6.73;;
50161;SDS011;36061;48.116;11.612;2022-12-07T09:11:25;10.57;;;6.53;;
50161;SDS011;36061;48.116;11.612;2022-12-07T09:13:51;11.43;;;6.40;;
50161;SDS011;36061;48.116;11.612;2022-12-07T09:16:17;9.97;;;5.87;;
50161;SDS011;36061;48.116;11.612;2022-12-07T09:18:43;8.60;;;6.30;;
50161;SDS011;36061;48.116;11.612;2022-12-07T09:21:08;9.23;;;5.73;;
50161;SDS011;36061;48.116;11.612;2022-12-07T09:23:34;10.00;;;6.23;;
50161;SDS011;36061;48.116;11.612;2022-12-07T09:26:00;10.97;;;6.63;;
50161;SDS011;36061;48.116;11.612;2022-12-07T09:28:27;10.37;;;5.87;;
50161;SDS011;36061;48.116;11.612;2022-12-07T09:30:53;9.60;;;6.70;;
50161;SDS011;36061;48.116;11.612;2022-12-07T09:33:19;9.97;;;6.13;;
50161;SDS011;36061;48.116;11.612;2022-12-07T09:35:45;10.30;;;6.60;;
50161;SDS011;36061;48.116;11.612;2022-12-07T09:38:12;9.43;;;6.10;;
50161;SDS011;36061;48.116;11.612;2022-12-07T09:40:38;9.37;;;6.13;;
50161;SDS011;36061;48.116;11.612;2022-12-07T09:43:04;8.07;;;5.63;;
50161;SDS011;36061;48.116;11.612;2022-12-07T09:47:56;9.23;;;6.27;;
50161;SDS011;36061;48.116;11.612;2022-12-07T09:50:23;10.63;;;6.20;;
50161;SDS011;36061;48.116;11.612;2022-12-07T09:52:51;10.23;;;5.80;;
50161;SDS011;36061;48.116;11.612;2022-12-07T09:55:26;9.77;;;5.10;;
50161;SDS011;36061;48.116;11.612;2022-12-07T09:57:53;8.33;;;5.60;;
50161;SDS011;36061;48.116;11.612;2022-12-07T10:00:21;7.77;;;5.60;;
50161;SDS011;36061;48.116;11.612;2022-12-07T10:05:57;10.20;;;6.23;;
50161;SDS011;36061;48.116;11.612;2022-12-07T10:08:16;10.60;;;6.33;;
50161;SDS011;36061;48.116;11.612;2022-12-07T10:10:42;8.10;;;5.77;;
50161;SDS011;36061;48.116;11.612;2022-12-07T10:13:14;7.97;;;5.10;;
50161;SDS011;36061;48.116;11.612;2022-12-07T10:24:12;8.67;;;4.37;;
50161;SDS011;36061;48.116;11.612;2022-12-07T10:32:03;10.20;;;4.63;;
50161;SDS011;36061;48.116;11.612;2022-12-07T10:34:36;7.33;;;4.90;;
50161;SDS011;36061;48.116;11.612;2022-12-07T10:39:50;9.70;;;5.00;;
50161;SDS011;36061;48.116;11.612;2022-12-07T10:42:24;7.20;;;4.30;;
50161;SDS011;36061;48.116;11.612;2022-12-07T10:51:17;11.13;;;4.10;;
50161;SDS011;36061;48.116;11.612;2022-12-07T10:53:53;9.37;;;4.53;;
50161;SDS011;36061;48.116;11.612;2022-12-07T10:57:01;6.53;;;4.23;;
50161;SDS011;36061;48.116;11.612;2022-12-07T10:59:50;10.10;;;4.23;;
50161;SDS011;36061;48.116;11.612;2022-12-07T11:05:36;17.40;;;5.10;;
50161;SDS011;36061;48.116;11.612;2022-12-07T11:08:14;6.97;;;3.73;;
50161;SDS011;36061;48.116;11.612;2022-12-07T11:11:06;11.10;;;4.43;;
50161;SDS011;36061;48.116;11.612;2022-12-07T11:13:59;7.93;;;4.17;;
50161;SDS011;36061;48.116;11.612;2022-12-07T11:19:40;15.83;;;4.73;;
50161;SDS011;36061;48.116;11.612;2022-12-07T11:22:30;5.77;;;3.73;;
50161;SDS011;36061;48.116;11.612;2022-12-07T11:27:56;8.53;;;3.30;;
50161;SDS011;36061;48.116;11.612;2022-12-07T11:30:57;6.43;;;4.00;;
50161;SDS011;36061;48.116;11.612;2022-12-07T11:33:39;7.87;;;3.83;;
50161;SDS011;36061;48.116;11.612;2022-12-07T11:41:23;7.93;;;3.57;;
50161;SDS011;36061;48.116;11.612;2022-12-07T11:46:38;4.10;;;3.00;;
50161;SDS011;36061;48.116;11.612;2022-12-07T11:52:12;10.50;;;3.87;;
50161;SDS011;36061;48.116;11.612;2022-12-07T11:54:47;9.70;;;3.90;;
50161;SDS011;36061;48.116;11.612;2022-12-07T11:57:18;8.20;;;3.20;;
50161;SDS011;36061;48.116;11.612;2022-12-07T11:59:59;4.93;;;3.20;;
50161;SDS011;36061;48.116;11.612;2022-12-07T12:02:34;7.13;;;3.53;;
50161;SDS011;36061;48.116;11.612;2022-12-07T12:05:18;11.03;;;4.17;;
50161;SDS011;36061;48.116;11.612;2022-12-07T12:07:54;6.23;;;3.37;;
50161;SDS011;36061;48.116;11.612;2022-12-07T12:10:35;12.87;;;4.53;;
50161;SDS011;36061;48.116;11.612;2022-12-07T12:16:43;11.30;;;3.70;;
50161;SDS011;36061;48.116;11.612;2022-12-07T12:21:25;11.00;;;3.37;;
50161;SDS011;36061;48.116;11.612;2022-12-07T12:23:58;10.87;;;3.97;;
50161;SDS011;36061;48.116;11.612;2022-12-07T12:26:29;12.80;;;4.47;;
50161;SDS011;36061;48.116;11.612;2022-12-07T12:28:59;15.97;;;4.47;;
50161;SDS011;36061;48.116;11.612;2022-12-07T12:31:43;9.70;;;4.30;;
50161;SDS011;36061;48.116;11.612;2022-12-07T12:37:02;17.57;;;4.40;;
50161;SDS011;36061;48.116;11.612;2022-12-07T12:39:38;8.23;;;3.63;;
50161;SDS011;36061;48.116;11.612;2022-12-07T12:42:05;8.70;;;3.70;;
50161;SDS011;36061;48.116;11.612;2022-12-07T12:45:02;6.80;;;4.03;;
50161;SDS011;36061;48.116;11.612;2022-12-07T12:50:43;10.63;;;4.23;;
50161;SDS011;36061;48.116;11.612;2022-12-07T12:53:14;5.60;;;4.03;;
50161;SDS011;36061;48.116;11.612;2022-12-07T12:58:37;12.27;;;3.97;;
50161;SDS011;36061;48.116;11.612;2022-12-07T13:03:56;13.70;;;4.00;;
50161;SDS011;36061;48.116;11.612;2022-12-07T13:08:55;15.27;;;4.57;;
50161;SDS011;36061;48.116;11.612;2022-12-07T13:11:28;15.67;;;5.10;;
50161;SDS011;36061;48.116;11.612;2022-12-07T13:16:59;18.90;;;4.60;;
50161;SDS011;36061;48.116;11.612;2022-12-07T13:25:12;17.67;;;4.80;;
50161;SDS011;36061;48.116;11.612;2022-12-07T13:27:47;14.43;;;4.63;;
50161;SDS011;36061;48.116;11.612;2022-12-07T13:30:21;7.33;;;4.93;;
50161;SDS011;36061;48.116;11.612;2022-12-07T13:32:51;11.00;;;4.57;;
50161;SDS011;36061;48.116;11.612;2022-12-07T13:35:31;10.70;;;4.53;;
50161;SDS011;36061;48.116;11.612;2022-12-07T13:37:58;7.67;;;4.30;;
50161;SDS011;36061;48.116;11.612;2022-12-07T13:40:26;7.80;;;4.23;;
50161;SDS011;36061;48.116;11.612;2022-12-07T13:42:59;15.90;;;4.80;;
50161;SDS011;36061;48.116;11.612;2022-12-07T13:48:16;11.30;;;5.30;;
50161;SDS011;36061;48.116;11.612;2022-12-07T13:50:59;9.93;;;4.83;;
50161;SDS011;36061;48.116;11.612;2022-12-07T13:53:26;7.83;;;4.60;;
50161;SDS011;36061;48.116;11.612;2022-12-07T13:55:55;11.27;;;5.00;;
50161;SDS011;36061;48.116;11.612;2022-12-07T13:58:26;12.37;;;4.67;;
50161;SDS011;36061;48.116;11.612;2022-12-07T14:00:55;9.80;;;5.43;;
50161;SDS011;36061;48.116;11.612;2022-12-07T14:03:29;14.93;;;5.30;;
50161;SDS011;36061;48.116;11.612;2022-12-07T14:06:04;8.03;;;4.13;;
50161;SDS011;36061;48.116;11.612;2022-12-07T14:08:30;12.77;;;4.93;;
50161;SDS011;36061;48.116;11.612;2022-12-07T14:10:56;12.60;;;5.33;;
50161;SDS011;36061;48.116;11.612;2022-12-07T14:16:18;18.93;;;6.67;;
50161;SDS011;36061;48.116;11.612;2022-12-07T14:18:55;10.00;;;4.63;;
50161;SDS011;36061;48.116;11.612;2022-12-07T14:21:24;8.27;;;4.63;;
50161;SDS011;36061;48.116;11.612;2022-12-07T14:26:37;7.03;;;4.40;;
50161;SDS011;36061;48.116;11.612;2022-12-07T14:31:53;9.20;;;4.40;;
50161;SDS011;36061;48.116;11.612;2022-12-07T14:34:23;12.23;;;5.53;;
50161;SDS011;36061;48.116;11.612;2022-12-07T14:36:49;19.13;;;6.83;;
50161;SDS011;36061;48.116;11.612;2022-12-07T14:39:15;13.47;;;6.03;;
50161;SDS011;36061;48.116;11.612;2022-12-07T14:41:41;12.33;;;5.27;;
50161;SDS011;36061;48.116;11.612;2022-12-07T14:44:16;11.67;;;5.40;;
50161;SDS011;36061;48.116;11.612;2022-12-07T14:46:43;10.07;;;5.27;;
50161;SDS011;36061;48.116;11.612;2022-12-07T14:49:09;14.23;;;5.10;;
50161;SDS011;36061;48.116;11.612;2022-12-07T14:51:36;10.93;;;5.13;;
50161;SDS011;36061;48.116;11.612;2022-12-07T14:54:04;14.93;;;5.67;;
50161;SDS011;36061;48.116;11.612;2022-12-07T14:56:31;10.50;;;5.30;;
50161;SDS011;36061;48.116;11.612;2022-12-07T14:58:57;15.37;;;6.30;;
50161;SDS011;36061;48.116;11.612;2022-12-07T15:01:23;11.27;;;5.73;;
50161;SDS011;36061;48.116;11.612;2022-12-07T15:03:49;13.90;;;5.10;;
50161;SDS011;36061;48.116;11.612;2022-12-07T15:06:15;9.83;;;4.93;;
50161;SDS011;36061;48.116;11.612;2022-12-07T15:08:43;11.23;;;5.17;;
50161;SDS011;36061;48.116;11.612;2022-12-07T15:11:11;6.10;;;4.60;;
50161;SDS011;36061;48.116;11.612;2022-12-07T15:13:41;14.23;;;5.10;;
50161;SDS011;36061;48.116;11.612;2022-12-07T15:16:25;10.00;;;4.90;;
50161;SDS011;36061;48.116;11.612;2022-12-07T15:18:51;10.07;;;5.23;;
50161;SDS011;36061;48.116;11.612;2022-12-07T15:21:17;10.50;;;5.07;;
50161;SDS011;36061;48.116;11.612;2022-12-07T15:23:43;9.33;;;4.53;;
50161;SDS011;36061;48.116;11.612;2022-12-07T15:26:11;8.30;;;5.23;;
50161;SDS011;36061;48.116;11.612;2022-12-07T15:28:37;9.10;;;5.30;;
50161;SDS011;36061;48.116;11.612;2022-12-07T15:31:03;8.33;;;5.43;;
50161;SDS011;36061;48.116;11.612;2022-12-07T15:33:29;8.53;;;4.70;;
50161;SDS011;36061;48.116;11.612;2022-12-07T15:35:54;8.50;;;5.50;;
50161;SDS011;36061;48.116;11.612;2022-12-07T15:38:20;6.23;;;4.33;;
50161;SDS011;36061;48.116;11.612;2022-12-07T15:40:47;7.77;;;5.13;;
50161;SDS011;36061;48.116;11.612;2022-12-07T15:43:13;10.83;;;4.90;;
50161;SDS011;36061;48.116;11.612;2022-12-07T15:45:57;14.90;;;5.50;;
50161;SDS011;36061;48.116;11.612;2022-12-07T15:48:24;10.87;;;5.50;;
50161;SDS011;36061;48.116;11.612;2022-12-07T15:50:50;9.87;;;4.87;;
50161;SDS011;36061;48.116;11.612;2022-12-07T15:53:16;9.60;;;5.20;;
50161;SDS011;36061;48.116;11.612;2022-12-07T15:55:42;7.97;;;5.90;;
50161;SDS011;36061;48.116;11.612;2022-12-07T15:58:08;9.03;;;5.70;;
50161;SDS011;36061;48.116;11.612;2022-12-07T16:00:34;14.70;;;7.23;;
50161;SDS011;36061;48.116;11.612;2022-12-07T16:03:00;9.87;;;5.30;;
50161;SDS011;36061;48.116;11.612;2022-12-07T16:05:25;10.57;;;5.53;;
50161;SDS011;36061;48.116;11.612;2022-12-07T16:07:51;9.07;;;5.23;;
50161;SDS011;36061;48.116;11.612;2022-12-07T16:10:17;8.90;;;6.00;;
50161;SDS011;36061;48.116;11.612;2022-12-07T16:12:43;10.23;;;6.03;;
50161;SDS011;36061;48.116;11.612;2022-12-07T16:15:08;8.93;;;5.63;;
50161;SDS011;36061;48.116;11.612;2022-12-07T16:17:34;10.47;;;6.20;;
50161;SDS011;36061;48.116;11.612;2022-12-07T16:20:00;8.73;;;5.53;;
50161;SDS011;36061;48.116;11.612;2022-12-07T16:22:26;8.80;;;5.67;;
50161;SDS011;36061;48.116;11.612;2022-12-07T16:24:52;14.80;;;6.87;;
50161;SDS011;36061;48.116;11.612;2022-12-07T16:27:18;18.33;;;9.70;;
50161;SDS011;36061;48.116;11.612;2022-12-07T16:29:43;15.83;;;7.67;;
50161;SDS011;36061;48.116;11.612;2022-12-07T16:32:10;14.33;;;6.37;;
50161;SDS011;36061;48.116;11.612;2022-12-07T16:34:36;10.93;;;6.30;;
50161;SDS011;36061;48.116;11.612;2022-12-07T16:37:01;11.30;;;6.67;;
50161;SDS011;36061;48.116;11.612;2022-12-07T16:39:27;10.60;;;5.97;;
50161;SDS011;36061;48.116;11.612;2022-12-07T16:41:53;10.00;;;5.97;;
50161;SDS011;36061;48.116;11.612;2022-12-07T16:44:18;13.30;;;7.23;;
50161;SDS011;36061;48.116;11.612;2022-12-07T16:46:44;11.07;;;6.40;;
50161;SDS011;36061;48.116;11.612;2022-12-07T16:49:13;12.67;;;7.23;;